sensor_id;sensor_type;location;lat;lon;timestamp;P1;durP1;ratioP1;P2;durP2;ratioP2
30185;SDS011;31152;49.190;8.122;2024-03-23T00:54:00;13.30;;;6.68;;
30185;SDS011;31152;49.190;8.122;2024-03-23T00:56:29;12.27;;;6.55;;
30185;SDS011;31152;49.190;8.122;2024-03-23T00:58:55;11.30;;;6.38;;
30185;SDS011;31152;49.190;8.122;2024-03-23T01:01:21;12.23;;;6.25;;
30185;SDS011;31152;49.190;8.122;2024-03-23T01:03:46;11.00;;;6.55;;
30185;SDS011;31152;49.190;8.122;2024-03-23T01:06:14;16.00;;;7.07;;
30185;SDS011;31152;49.190;8.122;2024-03-23T01:08:40;12.63;;;6.28;;
30185;SDS011;31152;49.190;8.122;2024-03-23T01:11:06;13.63;;;6.38;;
30185;SDS011;31152;49.190;8.122;2024-03-23T01:13:32;13.07;;;7.00;;
30185;SDS011;31152;49.190;8.122;2024-03-23T01:15:58;15.90;;;7.30;;
30185;SDS011;31152;49.190;8.122;2024-03-23T01:18:24;14.15;;;7.18;;
30185;SDS011;31152;49.190;8.122;2024-03-23T01:20:51;12.75;;;7.07;;
30185;SDS011;31152;49.190;8.122;2024-03-23T01:23:17;11.80;;;7.45;;
30185;SDS011;31152;49.190;8.122;2024-03-23T01:25:52;14.38;;;8.52;;
30185;SDS011;31152;49.190;8.122;2024-03-23T01:28:19;13.50;;;7.87;;
30185;SDS011;31152;49.190;8.122;2024-03-23T01:30:45;16.52;;;7.82;;
30185;SDS011;31152;49.190;8.122;2024-03-23T01:33:11;11.27;;;6.82;;
30185;SDS011;31152;49.190;8.122;2024-03-23T01:35:36;11.27;;;6.95;;
30185;SDS011;31152;49.190;8.122;2024-03-23T01:38:03;16.50;;;7.65;;
30185;SDS011;31152;49.190;8.122;2024-03-23T01:40:31;14.32;;;7.25;;
30185;SDS011;31152;49.190;8.122;2024-03-23T01:42:58;13.57;;;6.93;;
30185;SDS011;31152;49.190;8.122;2024-03-23T01:48:50;13.73;;;7.15;;
30185;SDS011;31152;49.190;8.122;2024-03-23T01:51:16;12.98;;;7.82;;
30185;SDS011;31152;49.190;8.122;2024-03-23T01:53:42;12.75;;;6.22;;
30185;SDS011;31152;49.190;8.122;2024-03-23T01:56:08;9.82;;;6.40;;
30185;SDS011;31152;49.190;8.122;2024-03-23T01:58:34;14.27;;;6.28;;
30185;SDS011;31152;49.190;8.122;2024-03-23T02:01:02;13.85;;;6.90;;
30185;SDS011;31152;49.190;8.122;2024-03-23T02:03:29;11.50;;;5.85;;
30185;SDS011;31152;49.190;8.122;2024-03-23T02:05:55;10.93;;;6.50;;
30185;SDS011;31152;49.190;8.122;2024-03-23T02:08:26;9.73;;;6.30;;
30185;SDS011;31152;49.190;8.122;2024-03-23T02:10:55;12.77;;;6.57;;
30185;SDS011;31152;49.190;8.122;2024-03-23T02:13:21;14.73;;;6.50;;
30185;SDS011;31152;49.190;8.122;2024-03-23T02:15:46;14.25;;;6.80;;
30185;SDS011;31152;49.190;8.122;2024-03-23T02:18:20;11.95;;;6.90;;
30185;SDS011;31152;49.190;8.122;2024-03-23T02:20:46;12.80;;;7.65;;
30185;SDS011;31152;49.190;8.122;2024-03-23T02:23:15;12.10;;;7.38;;
30185;SDS011;31152;49.190;8.122;2024-03-23T02:25:43;21.17;;;8.85;;
30185;SDS011;31152;49.190;8.122;2024-03-23T02:28:10;16.73;;;9.63;;
30185;SDS011;31152;49.190;8.122;2024-03-23T02:30:36;17.88;;;10.70;;
30185;SDS011;31152;49.190;8.122;2024-03-23T02:33:04;19.20;;;9.52;;
30185;SDS011;31152;49.190;8.122;2024-03-23T02:35:32;15.35;;;9.65;;
30185;SDS011;31152;49.190;8.122;2024-03-23T02:37:59;22.05;;;10.52;;
30185;SDS011;31152;49.190;8.122;2024-03-23T02:40:24;19.70;;;9.82;;
30185;SDS011;31152;49.190;8.122;2024-03-23T02:42:51;21.30;;;9.55;;
30185;SDS011;31152;49.190;8.122;2024-03-23T02:45:19;16.27;;;9.13;;
30185;SDS011;31152;49.190;8.122;2024-03-23T02:47:45;15.73;;;8.95;;
30185;SDS011;31152;49.190;8.122;2024-03-23T02:50:11;18.60;;;10.25;;
30185;SDS011;31152;49.190;8.122;2024-03-23T02:52:37;18.75;;;9.30;;
30185;SDS011;31152;49.190;8.122;2024-03-23T02:55:03;18.75;;;10.27;;
30185;SDS011;31152;49.190;8.122;2024-03-23T02:57:29;17.25;;;9.38;;
30185;SDS011;31152;49.190;8.122;2024-03-23T02:59:55;20.13;;;10.05;;
30185;SDS011;31152;49.190;8.122;2024-03-23T03:02:21;19.17;;;9.10;;
30185;SDS011;31152;49.190;8.122;2024-03-23T03:04:47;19.35;;;10.55;;
30185;SDS011;31152;49.190;8.122;2024-03-23T03:07:16;19.27;;;10.38;;
30185;SDS011;31152;49.190;8.122;2024-03-23T03:09:42;18.98;;;10.40;;
30185;SDS011;31152;49.190;8.122;2024-03-23T03:12:08;18.13;;;11.00;;
30185;SDS011;31152;49.190;8.122;2024-03-23T03:14:34;21.60;;;11.35;;
30185;SDS011;31152;49.190;8.122;2024-03-23T03:17:02;19.88;;;11.13;;
30185;SDS011;31152;49.190;8.122;2024-03-23T03:19:29;21.70;;;12.25;;
30185;SDS011;31152;49.190;8.122;2024-03-23T03:21:58;28.92;;;12.88;;
30185;SDS011;31152;49.190;8.122;2024-03-23T03:24:29;33.03;;;13.43;;
30185;SDS011;31152;49.190;8.122;2024-03-23T03:26:55;27.05;;;14.02;;
30185;SDS011;31152;49.190;8.122;2024-03-23T03:29:21;33.13;;;14.43;;
30185;SDS011;31152;49.190;8.122;2024-03-23T03:31:47;26.05;;;14.05;;
30185;SDS011;31152;49.190;8.122;2024-03-23T03:34:15;28.23;;;14.68;;
30185;SDS011;31152;49.190;8.122;2024-03-23T03:36:41;29.55;;;13.82;;
30185;SDS011;31152;49.190;8.122;2024-03-23T03:39:09;25.17;;;13.77;;
30185;SDS011;31152;49.190;8.122;2024-03-23T03:41:35;25.15;;;13.93;;
30185;SDS011;31152;49.190;8.122;2024-03-23T03:44:03;28.27;;;13.85;;
30185;SDS011;31152;49.190;8.122;2024-03-23T03:46:29;22.02;;;12.00;;
30185;SDS011;31152;49.190;8.122;2024-03-23T03:48:55;204.60;;;19.40;;
30185;SDS011;31152;49.190;8.122;2024-03-23T03:51:21;21.23;;;11.15;;
30185;SDS011;31152;49.190;8.122;2024-03-23T03:53:46;17.95;;;10.30;;
30185;SDS011;31152;49.190;8.122;2024-03-23T03:56:12;16.80;;;9.52;;
30185;SDS011;31152;49.190;8.122;2024-03-23T03:58:38;20.23;;;9.93;;
30185;SDS011;31152;49.190;8.122;2024-03-23T04:01:05;17.25;;;9.82;;
30185;SDS011;31152;49.190;8.122;2024-03-23T04:03:33;22.88;;;9.48;;
30185;SDS011;31152;49.190;8.122;2024-03-23T04:05:59;19.48;;;8.00;;
30185;SDS011;31152;49.190;8.122;2024-03-23T04:08:28;14.98;;;8.48;;
30185;SDS011;31152;49.190;8.122;2024-03-23T04:10:54;14.48;;;8.88;;
30185;SDS011;31152;49.190;8.122;2024-03-23T04:13:20;15.00;;;8.50;;
30185;SDS011;31152;49.190;8.122;2024-03-23T04:15:46;12.40;;;7.50;;
30185;SDS011;31152;49.190;8.122;2024-03-23T04:18:14;13.25;;;7.95;;
30185;SDS011;31152;49.190;8.122;2024-03-23T04:20:39;13.95;;;7.40;;
30185;SDS011;31152;49.190;8.122;2024-03-23T04:23:11;12.38;;;6.90;;
30185;SDS011;31152;49.190;8.122;2024-03-23T04:26:07;14.90;;;7.38;;
30185;SDS011;31152;49.190;8.122;2024-03-23T04:28:37;9.70;;;5.95;;
30185;SDS011;31152;49.190;8.122;2024-03-23T04:31:04;9.75;;;5.63;;
30185;SDS011;31152;49.190;8.122;2024-03-23T04:33:32;8.23;;;4.70;;
30185;SDS011;31152;49.190;8.122;2024-03-23T04:36:00;6.93;;;4.15;;
30185;SDS011;31152;49.190;8.122;2024-03-23T04:38:25;7.40;;;4.30;;
30185;SDS011;31152;49.190;8.122;2024-03-23T04:40:58;6.40;;;4.13;;
30185;SDS011;31152;49.190;8.122;2024-03-23T04:43:27;8.70;;;4.13;;
30185;SDS011;31152;49.190;8.122;2024-03-23T04:45:53;6.60;;;3.90;;
30185;SDS011;31152;49.190;8.122;2024-03-23T04:48:22;9.15;;;4.45;;
30185;SDS011;31152;49.190;8.122;2024-03-23T04:50:49;5.85;;;3.55;;
30185;SDS011;31152;49.190;8.122;2024-03-23T04:53:18;4.50;;;3.22;;
30185;SDS011;31152;49.190;8.122;2024-03-23T04:55:43;5.55;;;3.20;;
30185;SDS011;31152;49.190;8.122;2024-03-23T04:58:19;5.35;;;2.65;;
30185;SDS011;31152;49.190;8.122;2024-03-23T05:01:27;4.82;;;2.80;;
30185;SDS011;31152;49.190;8.122;2024-03-23T05:03:56;4.57;;;2.70;;
30185;SDS011;31152;49.190;8.122;2024-03-23T05:06:23;3.42;;;2.10;;
30185;SDS011;31152;49.190;8.122;2024-03-23T05:08:49;5.47;;;2.15;;
30185;SDS011;31152;49.190;8.122;2024-03-23T05:14:47;3.33;;;2.13;;
30185;SDS011;31152;49.190;8.122;2024-03-23T05:17:15;3.63;;;1.90;;
30185;SDS011;31152;49.190;8.122;2024-03-23T05:19:41;5.82;;;1.90;;
30185;SDS011;31152;49.190;8.122;2024-03-23T05:22:10;3.28;;;1.48;;
30185;SDS011;31152;49.190;8.122;2024-03-23T05:24:36;3.40;;;1.60;;
30185;SDS011;31152;49.190;8.122;2024-03-23T05:27:02;3.35;;;1.60;;
30185;SDS011;31152;49.190;8.122;2024-03-23T05:29:31;1.85;;;1.27;;
30185;SDS011;31152;49.190;8.122;2024-03-23T05:31:57;2.70;;;1.50;;
30185;SDS011;31152;49.190;8.122;2024-03-23T05:34:23;3.40;;;1.13;;
30185;SDS011;31152;49.190;8.122;2024-03-23T05:36:50;2.63;;;1.00;;
30185;SDS011;31152;49.190;8.122;2024-03-23T05:39:16;1.27;;;1.05;;
30185;SDS011;31152;49.190;8.122;2024-03-23T05:41:42;1.92;;;1.20;;
30185;SDS011;31152;49.190;8.122;2024-03-23T05:44:08;2.17;;;1.00;;
30185;SDS011;31152;49.190;8.122;2024-03-23T05:46:37;2.33;;;1.20;;
30185;SDS011;31152;49.190;8.122;2024-03-23T05:49:08;1.30;;;1.00;;
30185;SDS011;31152;49.190;8.122;2024-03-23T05:51:55;1.52;;;1.13;;
30185;SDS011;31152;49.190;8.122;2024-03-23T05:54:24;1.23;;;0.90;;
30185;SDS011;31152;49.190;8.122;2024-03-23T05:57:09;1.67;;;0.95;;
30185;SDS011;31152;49.190;8.122;2024-03-23T05:59:39;0.98;;;0.80;;
30185;SDS011;31152;49.190;8.122;2024-03-23T06:02:12;0.95;;;0.65;;
30185;SDS011;31152;49.190;8.122;2024-03-23T06:04:46;0.93;;;0.60;;
30185;SDS011;31152;49.190;8.122;2024-03-23T06:07:34;1.70;;;0.60;;
30185;SDS011;31152;49.190;8.122;2024-03-23T06:10:07;8.10;;;1.50;;
30185;SDS011;31152;49.190;8.122;2024-03-23T06:12:33;1.25;;;0.60;;
30185;SDS011;31152;49.190;8.122;2024-03-23T06:15:02;0.77;;;0.60;;
30185;SDS011;31152;49.190;8.122;2024-03-23T06:17:39;0.82;;;0.52;;
30185;SDS011;31152;49.190;8.122;2024-03-23T06:20:10;0.40;;;0.40;;
30185;SDS011;31152;49.190;8.122;2024-03-23T06:22:45;0.60;;;0.40;;
30185;SDS011;31152;49.190;8.122;2024-03-23T06:25:37;2.13;;;0.43;;
30185;SDS011;31152;49.190;8.122;2024-03-23T06:28:10;0.77;;;0.40;;
30185;SDS011;31152;49.190;8.122;2024-03-23T06:31:09;0.52;;;0.32;;
30185;SDS011;31152;49.190;8.122;2024-03-23T06:33:40;0.68;;;0.30;;
30185;SDS011;31152;49.190;8.122;2024-03-23T06:36:09;0.20;;;0.20;;
30185;SDS011;31152;49.190;8.122;2024-03-23T06:38:36;0.20;;;0.20;;
30185;SDS011;31152;49.190;8.122;2024-03-23T06:41:06;0.22;;;0.20;;
30185;SDS011;31152;49.190;8.122;2024-03-23T06:43:32;0.40;;;0.20;;
30185;SDS011;31152;49.190;8.122;2024-03-23T06:46:00;0.40;;;0.40;;
30185;SDS011;31152;49.190;8.122;2024-03-23T06:48:27;0.35;;;0.30;;
30185;SDS011;31152;49.190;8.122;2024-03-23T06:50:56;0.30;;;0.30;;
30185;SDS011;31152;49.190;8.122;2024-03-23T06:53:22;0.32;;;0.30;;
30185;SDS011;31152;49.190;8.122;2024-03-23T06:55:53;1.40;;;0.40;;
30185;SDS011;31152;49.190;8.122;2024-03-23T06:58:23;0.35;;;0.30;;
30185;SDS011;31152;49.190;8.122;2024-03-23T07:00:49;0.85;;;0.40;;
30185;SDS011;31152;49.190;8.122;2024-03-23T07:03:16;0.95;;;0.40;;
30185;SDS011;31152;49.190;8.122;2024-03-23T07:05:44;2.05;;;0.50;;
30185;SDS011;31152;49.190;8.122;2024-03-23T07:08:11;1.35;;;0.45;;
30185;SDS011;31152;49.190;8.122;2024-03-23T07:10:41;1.25;;;0.40;;
30185;SDS011;31152;49.190;8.122;2024-03-23T07:13:06;1.08;;;0.40;;
30185;SDS011;31152;49.190;8.122;2024-03-23T07:18:21;0.88;;;0.50;;
30185;SDS011;31152;49.190;8.122;2024-03-23T07:20:53;3.15;;;0.65;;
30185;SDS011;31152;49.190;8.122;2024-03-23T07:23:24;1.75;;;0.88;;
30185;SDS011;31152;49.190;8.122;2024-03-23T07:26:03;2.67;;;0.80;;
30185;SDS011;31152;49.190;8.122;2024-03-23T07:28:33;2.60;;;0.55;;
30185;SDS011;31152;49.190;8.122;2024-03-23T07:31:06;4.22;;;1.45;;
30185;SDS011;31152;49.190;8.122;2024-03-23T07:33:37;2.83;;;0.90;;
30185;SDS011;31152;49.190;8.122;2024-03-23T07:36:07;6.32;;;1.60;;
30185;SDS011;31152;49.190;8.122;2024-03-23T07:38:33;5.63;;;1.10;;
30185;SDS011;31152;49.190;8.122;2024-03-23T07:41:08;8.43;;;2.10;;
30185;SDS011;31152;49.190;8.122;2024-03-23T07:43:35;6.50;;;1.60;;
30185;SDS011;31152;49.190;8.122;2024-03-23T07:46:08;3.65;;;1.27;;
30185;SDS011;31152;49.190;8.122;2024-03-23T07:48:37;4.63;;;1.55;;
30185;SDS011;31152;49.190;8.122;2024-03-23T07:51:06;7.65;;;1.52;;
30185;SDS011;31152;49.190;8.122;2024-03-23T07:57:08;6.88;;;1.50;;
30185;SDS011;31152;49.190;8.122;2024-03-23T07:59:44;7.43;;;1.50;;
30185;SDS011;31152;49.190;8.122;2024-03-23T08:02:10;7.40;;;2.30;;
30185;SDS011;31152;49.190;8.122;2024-03-23T08:04:36;5.22;;;1.60;;
30185;SDS011;31152;49.190;8.122;2024-03-23T08:07:04;9.18;;;2.05;;
30185;SDS011;31152;49.190;8.122;2024-03-23T08:09:30;5.25;;;2.63;;
30185;SDS011;31152;49.190;8.122;2024-03-23T08:11:56;9.25;;;1.95;;
30185;SDS011;31152;49.190;8.122;2024-03-23T08:14:24;8.82;;;2.35;;
30185;SDS011;31152;49.190;8.122;2024-03-23T08:16:50;14.48;;;3.15;;
30185;SDS011;31152;49.190;8.122;2024-03-23T08:19:16;8.98;;;2.20;;
30185;SDS011;31152;49.190;8.122;2024-03-23T08:21:42;11.00;;;2.42;;
30185;SDS011;31152;49.190;8.122;2024-03-23T08:24:08;9.55;;;2.83;;
30185;SDS011;31152;49.190;8.122;2024-03-23T08:26:33;9.55;;;2.58;;
30185;SDS011;31152;49.190;8.122;2024-03-23T08:28:59;10.48;;;2.17;;
30185;SDS011;31152;49.190;8.122;2024-03-23T08:31:25;11.00;;;2.63;;
30185;SDS011;31152;49.190;8.122;2024-03-23T08:33:51;12.10;;;2.80;;
30185;SDS011;31152;49.190;8.122;2024-03-23T08:36:17;9.75;;;3.30;;
30185;SDS011;31152;49.190;8.122;2024-03-23T08:38:43;8.57;;;2.80;;
30185;SDS011;31152;49.190;8.122;2024-03-23T08:41:10;8.60;;;2.47;;
30185;SDS011;31152;49.190;8.122;2024-03-23T08:47:15;13.38;;;3.35;;
30185;SDS011;31152;49.190;8.122;2024-03-23T08:53:45;9.73;;;2.53;;
30185;SDS011;31152;49.190;8.122;2024-03-23T08:56:14;11.43;;;3.28;;
30185;SDS011;31152;49.190;8.122;2024-03-23T08:58:43;15.48;;;2.97;;
30185;SDS011;31152;49.190;8.122;2024-03-23T09:01:11;9.13;;;2.47;;
30185;SDS011;31152;49.190;8.122;2024-03-23T09:03:40;10.20;;;2.38;;
30185;SDS011;31152;49.190;8.122;2024-03-23T09:06:07;10.30;;;2.80;;
30185;SDS011;31152;49.190;8.122;2024-03-23T09:08:34;10.05;;;3.05;;
30185;SDS011;31152;49.190;8.122;2024-03-23T09:11:08;10.57;;;3.00;;
30185;SDS011;31152;49.190;8.122;2024-03-23T09:13:36;9.15;;;3.10;;
30185;SDS011;31152;49.190;8.122;2024-03-23T09:16:02;11.43;;;3.65;;
30185;SDS011;31152;49.190;8.122;2024-03-23T09:18:33;5.90;;;2.40;;
30185;SDS011;31152;49.190;8.122;2024-03-23T09:21:00;11.63;;;2.90;;
30185;SDS011;31152;49.190;8.122;2024-03-23T09:23:38;10.82;;;2.60;;
30185;SDS011;31152;49.190;8.122;2024-03-23T09:26:04;7.18;;;2.50;;
30185;SDS011;31152;49.190;8.122;2024-03-23T09:28:38;9.57;;;2.72;;
30185;SDS011;31152;49.190;8.122;2024-03-23T09:33:30;16.40;;;4.07;;
30185;SDS011;31152;49.190;8.122;2024-03-23T09:35:56;10.13;;;2.67;;
30185;SDS011;31152;49.190;8.122;2024-03-23T09:38:22;7.55;;;2.60;;
30185;SDS011;31152;49.190;8.122;2024-03-23T09:40:52;7.55;;;2.67;;
30185;SDS011;31152;49.190;8.122;2024-03-23T09:43:24;7.20;;;2.40;;
30185;SDS011;31152;49.190;8.122;2024-03-23T09:45:50;12.30;;;2.72;;
30185;SDS011;31152;49.190;8.122;2024-03-23T09:48:17;15.32;;;2.58;;
30185;SDS011;31152;49.190;8.122;2024-03-23T09:50:45;9.55;;;2.38;;
30185;SDS011;31152;49.190;8.122;2024-03-23T09:53:12;9.07;;;2.50;;
30185;SDS011;31152;49.190;8.122;2024-03-23T09:55:39;10.00;;;2.17;;
30185;SDS011;31152;49.190;8.122;2024-03-23T09:58:15;10.38;;;2.45;;
30185;SDS011;31152;49.190;8.122;2024-03-23T10:00:44;9.88;;;2.67;;
30185;SDS011;31152;49.190;8.122;2024-03-23T10:03:12;8.25;;;2.03;;
30185;SDS011;31152;49.190;8.122;2024-03-23T10:05:41;11.52;;;2.85;;
30185;SDS011;31152;49.190;8.122;2024-03-23T10:10:43;8.98;;;2.42;;
30185;SDS011;31152;49.190;8.122;2024-03-23T10:13:10;12.23;;;2.95;;
30185;SDS011;31152;49.190;8.122;2024-03-23T10:15:38;9.77;;;2.53;;
30185;SDS011;31152;49.190;8.122;2024-03-23T10:18:19;10.75;;;2.35;;
30185;SDS011;31152;49.190;8.122;2024-03-23T10:20:53;10.07;;;2.63;;
30185;SDS011;31152;49.190;8.122;2024-03-23T10:23:35;9.18;;;2.53;;
30185;SDS011;31152;49.190;8.122;2024-03-23T10:28:52;6.22;;;2.13;;
30185;SDS011;31152;49.190;8.122;2024-03-23T10:31:24;11.35;;;2.90;;
30185;SDS011;31152;49.190;8.122;2024-03-23T10:33:50;9.45;;;3.10;;
30185;SDS011;31152;49.190;8.122;2024-03-23T10:36:19;8.15;;;2.75;;
30185;SDS011;31152;49.190;8.122;2024-03-23T10:38:49;9.50;;;2.10;;
30185;SDS011;31152;49.190;8.122;2024-03-23T10:41:16;11.15;;;2.50;;
30185;SDS011;31152;49.190;8.122;2024-03-23T10:43:42;10.05;;;2.47;;
30185;SDS011;31152;49.190;8.122;2024-03-23T10:46:12;6.68;;;2.20;;
30185;SDS011;31152;49.190;8.122;2024-03-23T10:48:38;8.82;;;1.92;;
30185;SDS011;31152;49.190;8.122;2024-03-23T10:51:08;7.53;;;1.90;;
30185;SDS011;31152;49.190;8.122;2024-03-23T10:53:37;10.60;;;2.30;;
30185;SDS011;31152;49.190;8.122;2024-03-23T10:56:03;7.10;;;1.60;;
30185;SDS011;31152;49.190;8.122;2024-03-23T11:01:13;68.95;;;4.65;;
30185;SDS011;31152;49.190;8.122;2024-03-23T11:03:40;6.60;;;1.55;;
30185;SDS011;31152;49.190;8.122;2024-03-23T11:06:33;10.98;;;1.92;;
30185;SDS011;31152;49.190;8.122;2024-03-23T11:09:03;9.95;;;1.88;;
30185;SDS011;31152;49.190;8.122;2024-03-23T11:11:49;6.18;;;1.98;;
30185;SDS011;31152;49.190;8.122;2024-03-23T11:14:21;8.02;;;1.65;;
30185;SDS011;31152;49.190;8.122;2024-03-23T11:17:08;9.52;;;1.90;;
30185;SDS011;31152;49.190;8.122;2024-03-23T11:19:35;9.45;;;1.85;;
30185;SDS011;31152;49.190;8.122;2024-03-23T11:22:07;9.18;;;1.70;;
30185;SDS011;31152;49.190;8.122;2024-03-23T11:24:37;9.10;;;1.70;;
30185;SDS011;31152;49.190;8.122;2024-03-23T11:27:15;9.93;;;1.65;;
30185;SDS011;31152;49.190;8.122;2024-03-23T11:29:41;9.93;;;1.55;;
30185;SDS011;31152;49.190;8.122;2024-03-23T11:32:07;8.68;;;2.17;;
30185;SDS011;31152;49.190;8.122;2024-03-23T11:34:35;9.05;;;1.60;;
30185;SDS011;31152;49.190;8.122;2024-03-23T11:37:04;6.40;;;1.33;;
30185;SDS011;31152;49.190;8.122;2024-03-23T11:39:33;7.75;;;1.50;;
30185;SDS011;31152;49.190;8.122;2024-03-23T11:42:01;4.97;;;1.40;;
30185;SDS011;31152;49.190;8.122;2024-03-23T11:44:27;10.57;;;1.92;;
30185;SDS011;31152;49.190;8.122;2024-03-23T11:46:55;3.20;;;1.10;;
30185;SDS011;31152;49.190;8.122;2024-03-23T11:49:36;8.15;;;1.33;;
30185;SDS011;31152;49.190;8.122;2024-03-23T11:52:06;6.50;;;1.27;;
30185;SDS011;31152;49.190;8.122;2024-03-23T11:54:34;6.68;;;1.50;;
30185;SDS011;31152;49.190;8.122;2024-03-23T11:57:04;7.30;;;1.25;;
30185;SDS011;31152;49.190;8.122;2024-03-23T11:59:34;9.82;;;1.52;;
30185;SDS011;31152;49.190;8.122;2024-03-23T12:02:00;8.88;;;1.75;;
30185;SDS011;31152;49.190;8.122;2024-03-23T12:04:29;10.45;;;1.85;;
30185;SDS011;31152;49.190;8.122;2024-03-23T12:09:44;10.38;;;3.08;;
30185;SDS011;31152;49.190;8.122;2024-03-23T12:12:15;5.97;;;1.20;;
30185;SDS011;31152;49.190;8.122;2024-03-23T12:15:01;7.88;;;2.08;;
30185;SDS011;31152;49.190;8.122;2024-03-23T12:17:31;5.22;;;1.40;;
30185;SDS011;31152;49.190;8.122;2024-03-23T12:19:58;7.63;;;1.27;;
30185;SDS011;31152;49.190;8.122;2024-03-23T12:22:24;5.60;;;1.58;;
30185;SDS011;31152;49.190;8.122;2024-03-23T12:24:50;5.75;;;1.55;;
30185;SDS011;31152;49.190;8.122;2024-03-23T12:27:18;8.32;;;1.73;;
30185;SDS011;31152;49.190;8.122;2024-03-23T12:29:44;7.95;;;1.98;;
30185;SDS011;31152;49.190;8.122;2024-03-23T12:32:13;9.52;;;1.80;;
30185;SDS011;31152;49.190;8.122;2024-03-23T12:34:39;4.15;;;0.95;;
30185;SDS011;31152;49.190;8.122;2024-03-23T12:37:06;6.03;;;1.10;;
30185;SDS011;31152;49.190;8.122;2024-03-23T12:39:32;3.42;;;1.10;;
30185;SDS011;31152;49.190;8.122;2024-03-23T12:42:00;3.03;;;0.80;;
30185;SDS011;31152;49.190;8.122;2024-03-23T12:44:30;5.18;;;0.90;;
30185;SDS011;31152;49.190;8.122;2024-03-23T12:46:58;2.90;;;0.90;;
30185;SDS011;31152;49.190;8.122;2024-03-23T12:49:23;2.42;;;0.50;;
30185;SDS011;31152;49.190;8.122;2024-03-23T12:51:53;6.28;;;0.82;;
30185;SDS011;31152;49.190;8.122;2024-03-23T12:54:21;3.75;;;0.60;;
30185;SDS011;31152;49.190;8.122;2024-03-23T12:56:49;3.67;;;0.75;;
30185;SDS011;31152;49.190;8.122;2024-03-23T12:59:15;4.10;;;0.70;;
30185;SDS011;31152;49.190;8.122;2024-03-23T13:01:42;3.85;;;0.95;;
30185;SDS011;31152;49.190;8.122;2024-03-23T13:04:10;2.67;;;0.80;;
30185;SDS011;31152;49.190;8.122;2024-03-23T13:06:37;3.67;;;0.68;;
30185;SDS011;31152;49.190;8.122;2024-03-23T13:09:05;3.90;;;1.02;;
30185;SDS011;31152;49.190;8.122;2024-03-23T13:11:31;12.88;;;1.15;;
30185;SDS011;31152;49.190;8.122;2024-03-23T13:13:59;2.10;;;0.50;;
30185;SDS011;31152;49.190;8.122;2024-03-23T13:16:25;2.38;;;0.60;;
30185;SDS011;31152;49.190;8.122;2024-03-23T13:18:51;4.90;;;0.60;;
30185;SDS011;31152;49.190;8.122;2024-03-23T13:21:17;1.77;;;0.60;;
30185;SDS011;31152;49.190;8.122;2024-03-23T13:23:46;2.67;;;0.50;;
30185;SDS011;31152;49.190;8.122;2024-03-23T13:26:13;1.15;;;0.60;;
30185;SDS011;31152;49.190;8.122;2024-03-23T13:28:41;2.28;;;0.70;;
30185;SDS011;31152;49.190;8.122;2024-03-23T13:31:07;3.10;;;0.60;;
30185;SDS011;31152;49.190;8.122;2024-03-23T13:33:34;5.07;;;0.80;;
30185;SDS011;31152;49.190;8.122;2024-03-23T13:36:00;3.90;;;0.68;;
30185;SDS011;31152;49.190;8.122;2024-03-23T13:38:31;5.28;;;0.60;;
30185;SDS011;31152;49.190;8.122;2024-03-23T13:40:59;2.38;;;0.68;;
30185;SDS011;31152;49.190;8.122;2024-03-23T13:43:26;1.73;;;0.50;;
30185;SDS011;31152;49.190;8.122;2024-03-23T13:45:53;2.90;;;0.40;;
30185;SDS011;31152;49.190;8.122;2024-03-23T13:48:23;1.35;;;0.47;;
30185;SDS011;31152;49.190;8.122;2024-03-23T13:51:01;3.03;;;0.90;;
30185;SDS011;31152;49.190;8.122;2024-03-23T13:53:28;2.40;;;0.75;;
30185;SDS011;31152;49.190;8.122;2024-03-23T13:55:54;4.07;;;0.77;;
30185;SDS011;31152;49.190;8.122;2024-03-23T13:58:20;3.88;;;0.80;;
30185;SDS011;31152;49.190;8.122;2024-03-23T14:00:46;6.70;;;1.00;;
30185;SDS011;31152;49.190;8.122;2024-03-23T14:03:12;1.77;;;0.63;;
30185;SDS011;31152;49.190;8.122;2024-03-23T14:05:42;6.35;;;1.25;;
30185;SDS011;31152;49.190;8.122;2024-03-23T14:08:08;3.53;;;0.88;;
30185;SDS011;31152;49.190;8.122;2024-03-23T14:10:36;4.72;;;0.82;;
30185;SDS011;31152;49.190;8.122;2024-03-23T14:13:06;4.18;;;0.90;;
30185;SDS011;31152;49.190;8.122;2024-03-23T14:15:32;4.15;;;1.10;;
30185;SDS011;31152;49.190;8.122;2024-03-23T14:17:58;3.97;;;0.75;;
30185;SDS011;31152;49.190;8.122;2024-03-23T14:20:24;4.20;;;0.70;;
30185;SDS011;31152;49.190;8.122;2024-03-23T14:22:53;5.05;;;0.90;;
30185;SDS011;31152;49.190;8.122;2024-03-23T14:25:19;1.42;;;0.57;;
30185;SDS011;31152;49.190;8.122;2024-03-23T14:27:46;4.80;;;0.88;;
30185;SDS011;31152;49.190;8.122;2024-03-23T14:30:12;3.15;;;0.90;;
30185;SDS011;31152;49.190;8.122;2024-03-23T14:32:39;2.22;;;0.60;;
30185;SDS011;31152;49.190;8.122;2024-03-23T14:35:05;6.22;;;1.00;;
30185;SDS011;31152;49.190;8.122;2024-03-23T14:37:32;3.15;;;0.73;;
30185;SDS011;31152;49.190;8.122;2024-03-23T14:40:01;6.40;;;0.80;;
30185;SDS011;31152;49.190;8.122;2024-03-23T14:42:31;4.50;;;1.02;;
30185;SDS011;31152;49.190;8.122;2024-03-23T14:44:58;7.63;;;0.88;;
30185;SDS011;31152;49.190;8.122;2024-03-23T14:47:26;5.15;;;0.90;;
30185;SDS011;31152;49.190;8.122;2024-03-23T14:49:52;2.65;;;0.93;;
30185;SDS011;31152;49.190;8.122;2024-03-23T14:52:18;5.85;;;0.90;;
30185;SDS011;31152;49.190;8.122;2024-03-23T14:54:44;2.95;;;0.70;;
30185;SDS011;31152;49.190;8.122;2024-03-23T14:57:12;3.65;;;0.98;;
30185;SDS011;31152;49.190;8.122;2024-03-23T14:59:38;5.95;;;1.25;;
30185;SDS011;31152;49.190;8.122;2024-03-23T15:02:09;3.58;;;0.90;;
30185;SDS011;31152;49.190;8.122;2024-03-23T15:04:38;3.30;;;0.88;;
30185;SDS011;31152;49.190;8.122;2024-03-23T15:07:07;5.13;;;0.70;;
30185;SDS011;31152;49.190;8.122;2024-03-23T15:09:32;8.73;;;0.93;;
30185;SDS011;31152;49.190;8.122;2024-03-23T15:11:58;3.28;;;0.77;;
30185;SDS011;31152;49.190;8.122;2024-03-23T15:14:24;3.00;;;0.80;;
30185;SDS011;31152;49.190;8.122;2024-03-23T15:16:50;3.45;;;0.70;;
30185;SDS011;31152;49.190;8.122;2024-03-23T15:19:18;4.50;;;0.80;;
30185;SDS011;31152;49.190;8.122;2024-03-23T15:21:43;2.67;;;0.88;;
30185;SDS011;31152;49.190;8.122;2024-03-23T15:24:09;10.13;;;1.17;;
30185;SDS011;31152;49.190;8.122;2024-03-23T15:26:37;4.20;;;0.70;;
30185;SDS011;31152;49.190;8.122;2024-03-23T15:29:04;2.10;;;0.57;;
30185;SDS011;31152;49.190;8.122;2024-03-23T15:31:37;1.70;;;0.60;;
30185;SDS011;31152;49.190;8.122;2024-03-23T15:34:06;3.00;;;0.60;;
30185;SDS011;31152;49.190;8.122;2024-03-23T15:36:35;3.65;;;0.55;;
30185;SDS011;31152;49.190;8.122;2024-03-23T15:39:03;4.50;;;0.85;;
30185;SDS011;31152;49.190;8.122;2024-03-23T15:41:35;3.15;;;0.50;;
30185;SDS011;31152;49.190;8.122;2024-03-23T15:44:01;3.35;;;0.60;;
30185;SDS011;31152;49.190;8.122;2024-03-23T15:46:27;2.65;;;0.88;;
30185;SDS011;31152;49.190;8.122;2024-03-23T15:48:53;3.63;;;0.90;;
30185;SDS011;31152;49.190;8.122;2024-03-23T15:51:20;4.20;;;0.80;;
30185;SDS011;31152;49.190;8.122;2024-03-23T15:53:48;4.57;;;0.82;;
30185;SDS011;31152;49.190;8.122;2024-03-23T15:56:17;4.45;;;1.00;;
30185;SDS011;31152;49.190;8.122;2024-03-23T15:58:43;3.22;;;0.73;;
30185;SDS011;31152;49.190;8.122;2024-03-23T16:01:09;2.15;;;0.60;;
30185;SDS011;31152;49.190;8.122;2024-03-23T16:03:36;3.30;;;1.45;;
30185;SDS011;31152;49.190;8.122;2024-03-23T16:06:03;1.65;;;0.60;;
30185;SDS011;31152;49.190;8.122;2024-03-23T16:08:30;1.98;;;0.85;;
30185;SDS011;31152;49.190;8.122;2024-03-23T16:11:03;2.35;;;0.73;;
30185;SDS011;31152;49.190;8.122;2024-03-23T16:13:33;3.72;;;0.85;;
30185;SDS011;31152;49.190;8.122;2024-03-23T16:16:03;4.78;;;0.70;;
30185;SDS011;31152;49.190;8.122;2024-03-23T16:18:33;4.28;;;0.80;;